Time;durP1;ratioP1;P1;durP2;ratioP2;P2;SDS_P1;SDS_P2;PMS_P1;PMS_P2;Temp;Humidity;BMP_temperature;BMP_pressure;BME280_temperature;BME280_humidity;BME280_pressure;Samples;Min_cycle;Max_cycle;Signal;HPM_P1;HPM_P2
2022/11/04 00:00:19;;;;;;;1.40;0.70;;;11.60;99.90;;;;;;5116700;28;20431;-83
2022/11/04 00:02:44;;;;;;;1.15;0.88;;;11.60;99.90;;;;;;5098731;28;20031;-80
2022/11/04 00:05:10;;;;;;;4.97;0.70;;;11.60;99.90;;;;;;5098574;28;20019;-82
2022/11/04 00:12:23;;;;;;;2.42;0.70;;;11.70;99.90;;;;;;5099368;28;20427;-83
2022/11/04 00:13:05;;;;;;;1.75;0.77;;;11.60;99.90;;;;;;5115544;28;20023;-81
2022/11/04 00:18:19;;;;;;;1.75;0.40;;;11.60;99.90;;;;;;5112044;28;20084;-82
2022/11/04 00:29:13;;;;;;;1.38;0.55;;;11.60;99.90;;;;;;5042611;28;20052;-80
2022/11/04 00:34:23;;;;;;;1.42;0.70;;;11.60;99.90;;;;;;5095620;28;20075;-80
2022/11/04 00:36:49;;;;;;;1.17;0.50;;;11.60;99.90;;;;;;5077489;28;20024;-80
2022/11/04 00:39:14;;;;;;;4.00;0.57;;;11.60;99.90;;;;;;5106488;28;20094;-83
2022/11/04 00:41:40;;;;;;;0.90;0.50;;;11.60;99.90;;;;;;5100966;28;20475;-83
2022/11/04 00:44:05;;;;;;;1.27;0.40;;;11.50;99.90;;;;;;5093698;28;20019;-83
2022/11/04 00:46:32;;;;;;;3.10;0.70;;;11.50;99.90;;;;;;5077884;28;20028;-83
2022/11/04 00:48:58;;;;;;;0.93;0.43;;;11.50;99.90;;;;;;5103762;28;20529;-81
2022/11/04 00:51:24;;;;;;;1.13;0.60;;;11.50;99.90;;;;;;5106999;28;20035;-82
2022/11/04 00:53:49;;;;;;;0.55;0.40;;;11.50;99.90;;;;;;5097932;28;20049;-84
2022/11/04 00:56:15;;;;;;;2.00;0.60;;;11.50;99.90;;;;;;5094551;28;20073;-84
2022/11/04 00:58:41;;;;;;;0.98;0.50;;;11.50;99.90;;;;;;5083875;28;20039;-84
2022/11/04 01:01:12;;;;;;;0.95;0.47;;;11.50;99.90;;;;;;5087405;28;20032;-83
2022/11/04 01:03:38;;;;;;;0.70;0.57;;;11.50;99.90;;;;;;5091495;28;20027;-86
2022/11/04 01:06:05;;;;;;;1.23;0.60;;;11.40;99.90;;;;;;5079937;28;20115;-82
2022/11/04 01:08:30;;;;;;;1.08;0.60;;;11.50;99.90;;;;;;5092267;28;20036;-84
2022/11/04 01:10:59;;;;;;;1.05;0.43;;;11.50;99.90;;;;;;5103756;28;20111;-81
2022/11/04 01:13:25;;;;;;;1.05;0.35;;;11.50;99.90;;;;;;5115547;28;20103;-84
2022/11/04 01:15:50;;;;;;;0.45;0.38;;;11.40;99.90;;;;;;5081324;28;20051;-83
2022/11/04 01:18:16;;;;;;;1.85;0.40;;;11.40;99.90;;;;;;5095860;28;20031;-80
2022/11/04 01:20:41;;;;;;;0.85;0.30;;;11.40;99.90;;;;;;5097114;28;20375;-81
2022/11/04 01:23:07;;;;;;;1.75;0.30;;;11.40;99.90;;;;;;5114624;28;20030;-81
2022/11/04 01:25:33;;;;;;;1.15;0.45;;;11.30;99.90;;;;;;5097172;28;20019;-81
2022/11/04 01:27:58;;;;;;;1.60;0.40;;;11.40;99.90;;;;;;5097079;28;20023;-81
2022/11/04 01:30:24;;;;;;;1.70;0.43;;;11.40;99.90;;;;;;5114882;28;20055;-81
2022/11/04 01:32:50;;;;;;;2.00;0.55;;;11.40;99.90;;;;;;5097633;28;20453;-81
2022/11/04 01:35:16;;;;;;;0.65;0.30;;;11.40;99.90;;;;;;5097166;28;20074;-81
2022/11/04 01:37:42;;;;;;;1.13;0.50;;;11.40;99.90;;;;;;5097742;28;20420;-81
2022/11/04 01:40:08;;;;;;;2.22;0.70;;;11.40;99.90;;;;;;5096478;28;20059;-81
2022/11/04 01:42:34;;;;;;;0.52;0.47;;;11.40;99.90;;;;;;5115619;28;20038;-81
2022/11/04 01:45:00;;;;;;;3.40;0.52;;;11.40;99.90;;;;;;5097316;28;20114;-81
2022/11/04 01:47:36;;;;;;;2.83;0.57;;;11.40;99.90;;;;;;5097118;28;20020;-81
2022/11/04 01:50:09;;;;;;;2.10;0.40;;;11.30;99.90;;;;;;5114754;28;20027;-81
2022/11/04 01:52:41;;;;;;;2.00;0.43;;;11.30;99.90;;;;;;5092185;28;20027;-79
2022/11/04 01:55:37;;;;;;;0.73;0.40;;;11.30;99.90;;;;;;5096401;28;20024;-79
2022/11/04 01:58:10;;;;;;;0.63;0.55;;;11.30;99.90;;;;;;5108813;28;20035;-79
2022/11/04 02:00:40;;;;;;;4.60;0.43;;;11.30;99.90;;;;;;5096888;28;20037;-79
2022/11/04 02:03:16;;;;;;;0.60;0.50;;;11.30;99.90;;;;;;5114310;28;20030;-79
2022/11/04 02:05:43;;;;;;;1.58;0.40;;;11.20;99.90;;;;;;5096697;28;20444;-78
2022/11/04 02:08:11;;;;;;;1.30;0.40;;;11.30;99.90;;;;;;5096178;28;20039;-79
2022/11/04 02:10:40;;;;;;;1.20;0.90;;;11.30;99.90;;;;;;5096401;28;20066;-79
2022/11/04 02:13:06;;;;;;;5.07;0.47;;;11.20;99.90;;;;;;5095959;28;20035;-80
2022/11/04 02:15:57;;;;;;;1.73;0.57;;;11.30;99.90;;;;;;5096422;28;20376;-79
2022/11/04 02:18:43;;;;;;;0.30;0.20;;;11.20;99.90;;;;;;5082295;28;20129;-80
2022/11/04 02:21:46;;;;;;;2.03;0.45;;;11.20;99.90;;;;;;5096119;28;20039;-80
2022/11/04 02:24:49;;;;;;;3.63;0.60;;;11.20;99.90;;;;;;5096210;28;20146;-79
2022/11/04 02:27:46;;;;;;;1.25;0.40;;;11.20;99.90;;;;;;5113971;28;20034;-80
2022/11/04 02:30:17;;;;;;;4.68;0.90;;;11.10;99.90;;;;;;5095634;28;20504;-80
2022/11/04 02:33:18;;;;;;;1.85;0.85;;;11.20;99.90;;;;;;5096381;28;20031;-80
2022/11/04 02:35:44;;;;;;;0.88;0.28;;;11.10;99.90;;;;;;5078043;28;20051;-80
2022/11/04 02:38:13;;;;;;;0.98;0.57;;;11.10;99.90;;;;;;5095830;28;20032;-80
2022/11/04 02:40:48;;;;;;;1.63;0.52;;;11.10;99.90;;;;;;5095851;28;20028;-80
2022/11/04 02:43:31;;;;;;;4.10;0.50;;;11.10;99.90;;;;;;5113788;28;20020;-80
2022/11/04 02:46:22;;;;;;;1.73;0.50;;;11.10;99.90;;;;;;5080720;28;20021;-80
2022/11/04 02:48:56;;;;;;;0.93;0.40;;;11.10;99.90;;;;;;5076111;28;20127;-80
2022/11/04 02:51:30;;;;;;;1.80;0.50;;;11.10;99.90;;;;;;5075339;28;20034;-80
2022/11/04 02:54:04;;;;;;;1.48;0.40;;;11.10;99.90;;;;;;5075415;28;20465;-80
2022/11/04 02:56:36;;;;;;;3.13;0.30;;;11.10;99.90;;;;;;5093702;28;20035;-80
2022/11/04 02:59:09;;;;;;;3.40;0.70;;;11.10;99.90;;;;;;5075964;28;20024;-80
2022/11/04 03:01:38;;;;;;;3.17;0.50;;;11.10;99.90;;;;;;5076135;28;20036;-80
2022/11/04 03:04:17;;;;;;;3.65;0.50;;;11.10;99.90;;;;;;5075932;28;20028;-80
2022/11/04 03:06:46;;;;;;;5.43;0.40;;;11.10;99.90;;;;;;5075770;28;20109;-80
2022/11/04 03:09:14;;;;;;;1.10;0.40;;;11.10;99.90;;;;;;5093408;28;20461;-81
2022/11/04 03:11:44;;;;;;;2.13;0.20;;;11.10;99.90;;;;;;5076003;28;20024;-80
2022/11/04 03:14:15;;;;;;;1.65;0.45;;;11.00;99.90;;;;;;5075143;28;20377;-82
2022/11/04 03:16:56;;;;;;;6.13;0.70;;;11.00;99.90;;;;;;5075408;28;20024;-80
2022/11/04 03:19:31;;;;;;;1.45;0.47;;;11.00;99.90;;;;;;5074795;28;20093;-80
2022/11/04 03:22:09;;;;;;;3.72;0.57;;;10.90;99.90;;;;;;5075158;28;20082;-80
2022/11/04 03:24:34;;;;;;;1.45;0.50;;;10.90;99.90;;;;;;5075549;28;20480;-80
2022/11/04 03:27:23;;;;;;;1.52;0.38;;;10.90;99.90;;;;;;5075431;28;20069;-80
2022/11/04 03:30:03;;;;;;;3.80;0.50;;;10.90;99.90;;;;;;5075594;28;20054;-80
2022/11/04 03:32:38;;;;;;;2.92;0.60;;;10.90;99.90;;;;;;5074987;28;20020;-80
2022/11/04 03:35:05;;;;;;;3.47;0.70;;;11.00;99.90;;;;;;5075425;28;20027;-80
2022/11/04 03:37:31;;;;;;;3.55;0.40;;;10.90;99.90;;;;;;5074841;28;20233;-80
2022/11/04 03:39:57;;;;;;;1.27;0.40;;;10.90;99.90;;;;;;5075201;28;20111;-80
2022/11/04 03:42:23;;;;;;;0.60;0.30;;;10.80;99.90;;;;;;5093014;28;20066;-80
2022/11/04 03:44:57;;;;;;;0.90;0.40;;;10.80;99.90;;;;;;5093219;28;20024;-80
2022/11/04 03:47:25;;;;;;;0.93;0.28;;;10.80;99.90;;;;;;5092775;28;20070;-80
2022/11/04 03:49:58;;;;;;;2.33;0.57;;;10.70;99.90;;;;;;5074775;28;20028;-79
2022/11/04 03:52:23;;;;;;;1.30;0.60;;;10.70;99.90;;;;;;5093203;28;20047;-81
2022/11/04 03:54:49;;;;;;;1.40;0.40;;;10.70;99.90;;;;;;5075691;28;20020;-80
2022/11/04 03:57:54;;;;;;;1.75;0.50;;;10.70;99.90;;;;;;5074988;28;20028;-80
2022/11/04 04:00:22;;;;;;;1.65;0.50;;;10.70;99.90;;;;;;5074582;28;20137;-79
2022/11/04 04:03:07;;;;;;;0.43;0.28;;;10.70;99.90;;;;;;5093087;28;20081;-80
2022/11/04 04:05:54;;;;;;;3.45;0.43;;;10.70;99.90;;;;;;5078174;28;20035;-80
2022/11/04 04:08:38;;;;;;;0.95;0.38;;;10.70;99.90;;;;;;5078187;28;20028;-80
2022/11/04 04:11:35;;;;;;;0.77;0.30;;;10.80;99.90;;;;;;5078769;28;20038;-81
2022/11/04 04:14:40;;;;;;;1.02;0.40;;;10.70;99.90;;;;;;5096976;28;20020;-81
2022/11/04 04:17:35;;;;;;;1.05;0.40;;;10.70;99.90;;;;;;5096482;28;20369;-80
2022/11/04 04:20:14;;;;;;;1.02;0.60;;;10.70;99.90;;;;;;5078670;28;20032;-80
2022/11/04 04:22:52;;;;;;;4.47;0.70;;;10.60;99.90;;;;;;5078880;28;20075;-80
2022/11/04 04:28:06;;;;;;;1.05;0.45;;;10.60;99.90;;;;;;5096100;28;20112;-80
2022/11/04 04:30:32;;;;;;;0.70;0.40;;;10.60;99.90;;;;;;5094912;28;20113;-79
2022/11/04 04:33:02;;;;;;;2.47;0.30;;;10.70;99.90;;;;;;5078288;28;20035;-79
2022/11/04 04:35:40;;;;;;;3.78;0.55;;;10.60;99.90;;;;;;5077693;28;20119;-79
2022/11/04 04:46:37;;;;;;;1.95;0.50;;;10.60;99.90;;;;;;5095012;28;20078;-79
2022/11/04 04:49:07;;;;;;;1.00;0.50;;;10.60;99.90;;;;;;5077827;28;20055;-79
2022/11/04 04:51:39;;;;;;;1.13;0.50;;;10.60;99.90;;;;;;5077360;28;20217;-79
2022/11/04 04:54:04;;;;;;;0.93;0.55;;;10.60;99.90;;;;;;5095814;28;20039;-79
2022/11/04 04:56:30;;;;;;;1.15;0.50;;;10.60;99.90;;;;;;5077183;28;20032;-79
2022/11/04 04:58:56;;;;;;;0.85;0.40;;;10.50;99.90;;;;;;5095449;28;20032;-79
2022/11/04 05:01:21;;;;;;;2.58;0.50;;;10.50;99.90;;;;;;5077178;28;20386;-79
2022/11/04 05:03:47;;;;;;;2.58;0.60;;;10.60;99.90;;;;;;5077784;28;20056;-79
2022/11/04 05:06:12;;;;;;;1.30;0.50;;;10.60;99.90;;;;;;5077210;28;20036;-79
2022/11/04 05:08:38;;;;;;;2.28;0.68;;;10.50;99.90;;;;;;5077084;28;20089;-79
2022/11/04 05:11:04;;;;;;;1.92;0.50;;;10.50;99.90;;;;;;5077509;28;20028;-79
2022/11/04 05:13:29;;;;;;;1.13;0.45;;;10.50;99.90;;;;;;5077024;28;20024;-79
2022/11/04 05:16:07;;;;;;;1.17;0.40;;;10.50;99.90;;;;;;5076501;28;20028;-80
2022/11/04 05:18:33;;;;;;;1.40;0.60;;;10.50;99.90;;;;;;5076457;28;20032;-79
2022/11/04 05:21:03;;;;;;;1.40;0.32;;;10.40;99.90;;;;;;5094973;28;20040;-79
2022/11/04 05:23:29;;;;;;;1.70;0.50;;;10.40;99.90;;;;;;5076588;28;20094;-79
2022/11/04 05:25:57;;;;;;;2.92;0.88;;;10.40;99.90;;;;;;5076573;28;20484;-79
2022/11/04 05:28:23;;;;;;;1.85;0.47;;;10.40;99.90;;;;;;5094286;28;20554;-80
2022/11/04 05:30:49;;;;;;;2.67;0.88;;;10.40;99.90;;;;;;5094815;28;20138;-80
2022/11/04 05:33:14;;;;;;;0.95;0.60;;;10.40;99.90;;;;;;5077065;28;20020;-81
2022/11/04 05:35:40;;;;;;;4.78;0.82;;;10.30;99.90;;;;;;5076614;28;20081;-80
2022/11/04 05:38:05;;;;;;;1.77;0.65;;;10.40;99.90;;;;;;5077129;28;20028;-80
2022/11/04 05:40:31;;;;;;;3.65;0.80;;;10.40;99.90;;;;;;5076512;28;20434;-80
2022/11/04 05:42:58;;;;;;;2.35;0.55;;;10.30;99.90;;;;;;5077271;28;20020;-79
2022/11/04 05:45:25;;;;;;;4.93;0.70;;;10.40;99.90;;;;;;5076781;28;20397;-80
2022/11/04 05:47:59;;;;;;;1.15;0.63;;;10.40;99.90;;;;;;5077274;28;20055;-80
2022/11/04 05:50:25;;;;;;;3.60;0.85;;;10.40;99.90;;;;;;5076051;28;20028;-81
2022/11/04 05:52:51;;;;;;;3.90;0.70;;;10.40;99.90;;;;;;5076687;28;20496;-81
2022/11/04 05:55:16;;;;;;;1.67;0.70;;;10.40;99.90;;;;;;5076496;28;20035;-80
2022/11/04 05:57:42;;;;;;;3.53;0.50;;;10.30;99.90;;;;;;5094244;28;20020;-80
2022/11/04 06:00:12;;;;;;;2.53;0.70;;;10.40;99.90;;;;;;5094433;28;20499;-80
2022/11/04 06:02:38;;;;;;;3.35;0.70;;;10.30;99.90;;;;;;5076258;28;20043;-80
2022/11/04 06:05:04;;;;;;;2.47;0.63;;;10.30;99.90;;;;;;5094579;28;20389;-81
2022/11/04 06:07:29;;;;;;;1.80;0.57;;;10.30;99.90;;;;;;5097904;28;20035;-81
2022/11/04 06:09:55;;;;;;;2.50;0.63;;;10.30;99.90;;;;;;5076713;28;20081;-80
2022/11/04 06:12:20;;;;;;;1.73;0.88;;;10.30;99.90;;;;;;5090185;28;20028;-80
2022/11/04 06:14:46;;;;;;;1.08;0.57;;;10.30;99.90;;;;;;5078775;28;20035;-81
2022/11/04 06:17:17;;;;;;;2.90;0.80;;;10.30;99.90;;;;;;5079964;28;20055;-82
2022/11/04 06:19:43;;;;;;;1.17;0.52;;;10.30;99.90;;;;;;5104601;28;20024;-81
2022/11/04 06:22:11;;;;;;;2.15;0.65;;;10.20;99.90;;;;;;5088248;28;20032;-80
2022/11/04 06:24:37;;;;;;;2.38;0.40;;;10.30;99.90;;;;;;5094963;28;20088;-80
2022/11/04 06:27:02;;;;;;;0.93;0.73;;;10.30;99.90;;;;;;5078903;28;20020;-80
2022/11/04 06:29:28;;;;;;;1.13;0.50;;;10.20;99.90;;;;;;5090266;28;20051;-80
2022/11/04 06:31:53;;;;;;;0.98;0.40;;;10.20;99.90;;;;;;5092952;28;20032;-81
2022/11/04 06:34:19;;;;;;;1.55;0.50;;;10.20;99.90;;;;;;5092505;28;20472;-82
2022/11/04 06:36:45;;;;;;;5.03;0.60;;;10.20;99.90;;;;;;5096043;28;20430;-81
2022/11/04 06:39:11;;;;;;;2.15;0.50;;;10.20;99.90;;;;;;5095926;28;20076;-81
2022/11/04 06:41:36;;;;;;;1.50;0.73;;;10.20;99.90;;;;;;5095799;28;20540;-81
2022/11/04 06:44:02;;;;;;;2.13;0.63;;;10.20;99.90;;;;;;5096312;28;20108;-81
2022/11/04 06:46:35;;;;;;;2.10;0.63;;;10.20;99.90;;;;;;5095444;28;20023;-81
2022/11/04 06:49:01;;;;;;;3.10;0.70;;;10.20;99.90;;;;;;5095178;28;20051;-80
2022/11/04 06:51:27;;;;;;;1.33;0.70;;;10.20;99.90;;;;;;5095689;28;20452;-80
2022/11/04 06:53:53;;;;;;;2.50;0.80;;;10.30;99.90;;;;;;5113947;28;20387;-80
2022/11/04 06:56:18;;;;;;;1.85;0.60;;;10.30;99.90;;;;;;5100030;28;20031;-80
2022/11/04 06:58:50;;;;;;;2.25;0.70;;;10.30;99.90;;;;;;5092955;28;20167;-80
2022/11/04 07:01:17;;;;;;;1.13;0.50;;;10.30;99.90;;;;;;5095757;28;20023;-80
2022/11/04 07:03:43;;;;;;;1.92;0.43;;;10.30;99.90;;;;;;5095168;28;20472;-81
2022/11/04 07:06:10;;;;;;;1.73;0.50;;;10.30;99.90;;;;;;5103241;28;20020;-80
2022/11/04 07:08:39;;;;;;;1.55;0.47;;;10.30;99.90;;;;;;5090848;28;20091;-80
2022/11/04 07:11:05;;;;;;;1.23;0.60;;;10.40;99.90;;;;;;5095420;28;20027;-80
2022/11/04 07:13:31;;;;;;;4.40;1.35;;;10.40;99.90;;;;;;5095297;28;20024;-80
2022/11/04 07:15:57;;;;;;;3.33;1.88;;;10.40;99.90;;;;;;5095746;28;20112;-79
2022/11/04 07:18:22;;;;;;;4.32;1.40;;;10.40;99.90;;;;;;5095068;28;20028;-81
2022/11/04 07:20:48;;;;;;;2.53;1.25;;;10.50;99.90;;;;;;5092153;28;20028;-79
2022/11/04 07:23:14;;;;;;;1.83;1.00;;;10.50;99.90;;;;;;5092291;28;20469;-80
2022/11/04 07:25:39;;;;;;;2.47;0.90;;;10.50;99.90;;;;;;5091871;28;20016;-80
2022/11/04 07:28:05;;;;;;;4.25;0.70;;;10.60;99.90;;;;;;5092308;28;20031;-80
2022/11/04 07:30:31;;;;;;;1.65;0.60;;;10.60;99.90;;;;;;5091742;28;20044;-80
2022/11/04 07:32:57;;;;;;;2.28;0.80;;;10.60;99.90;;;;;;5094693;28;20366;-80
2022/11/04 07:35:22;;;;;;;1.17;0.60;;;10.60;99.90;;;;;;5083800;28;20035;-80
2022/11/04 07:37:48;;;;;;;2.28;0.68;;;10.70;99.90;;;;;;5096028;28;20058;-80
2022/11/04 07:40:14;;;;;;;3.08;0.45;;;10.70;99.90;;;;;;5099325;28;20019;-81
2022/11/04 07:42:39;;;;;;;3.00;0.70;;;10.70;99.90;;;;;;5094203;28;20098;-80
2022/11/04 07:45:05;;;;;;;3.47;0.68;;;10.80;99.90;;;;;;5078858;28;20028;-80
2022/11/04 07:47:31;;;;;;;1.92;0.65;;;10.80;99.90;;;;;;5078295;28;20032;-80
2022/11/04 07:49:57;;;;;;;1.65;0.70;;;10.80;99.90;;;;;;5079033;28;20028;-80
2022/11/04 07:52:23;;;;;;;2.03;0.90;;;10.80;99.90;;;;;;5091792;28;20019;-81
2022/11/04 07:54:49;;;;;;;1.15;0.73;;;10.80;99.90;;;;;;5117046;28;20107;-80
2022/11/04 07:57:15;;;;;;;1.75;1.20;;;10.80;99.90;;;;;;5098844;28;20055;-80
2022/11/04 07:59:40;;;;;;;3.53;1.30;;;10.80;99.90;;;;;;5094097;28;20034;-79
2022/11/04 08:02:06;;;;;;;2.00;0.98;;;10.80;99.90;;;;;;5098780;28;20035;-80
2022/11/04 08:04:32;;;;;;;4.28;1.02;;;10.90;99.90;;;;;;5097929;28;20030;-80
2022/11/04 08:06:58;;;;;;;3.85;1.05;;;10.90;99.90;;;;;;5098594;28;20035;-79
2022/11/04 08:09:24;;;;;;;5.50;1.20;;;10.90;99.90;;;;;;5098211;28;20059;-80
2022/11/04 08:11:49;;;;;;;1.30;1.00;;;11.00;99.90;;;;;;5116557;28;20483;-78
2022/11/04 08:14:15;;;;;;;2.15;1.17;;;11.10;99.90;;;;;;5098603;28;20388;-80
2022/11/04 08:16:41;;;;;;;2.33;1.50;;;11.10;99.90;;;;;;5098152;28;20076;-79
2022/11/04 08:19:06;;;;;;;3.45;1.30;;;11.10;99.90;;;;;;5098843;28;20031;-80
2022/11/04 08:21:33;;;;;;;2.63;1.55;;;11.10;99.90;;;;;;5116357;28;20035;-79
2022/11/04 08:23:59;;;;;;;3.15;1.35;;;11.10;99.90;;;;;;5098878;28;20389;-80
2022/11/04 08:26:24;;;;;;;3.65;1.30;;;11.20;99.90;;;;;;5098300;28;20027;-81
2022/11/04 08:28:50;;;;;;;5.35;1.30;;;11.20;99.90;;;;;;5098379;28;20046;-79
2022/11/04 08:31:25;;;;;;;2.00;1.20;;;11.20;99.90;;;;;;5098545;28;20024;-79
2022/11/04 08:33:52;;;;;;;2.55;1.23;;;11.30;99.90;;;;;;5098262;28;20106;-80
2022/11/04 08:36:25;;;;;;;3.85;1.25;;;11.30;99.90;;;;;;5097795;28;20031;-79
2022/11/04 08:38:51;;;;;;;3.45;1.42;;;11.40;99.90;;;;;;5098596;28;20418;-79
2022/11/04 08:41:20;;;;;;;4.85;1.10;;;11.40;99.90;;;;;;5098501;28;20035;-80
2022/11/04 08:43:47;;;;;;;2.67;1.05;;;11.50;99.90;;;;;;5116142;28;20034;-80
2022/11/04 08:46:13;;;;;;;1.50;1.20;;;11.40;99.90;;;;;;5098227;28;20107;-80
2022/11/04 08:48:40;;;;;;;4.78;1.20;;;11.50;99.90;;;;;;5096911;28;20023;-79
2022/11/04 08:51:12;;;;;;;2.40;0.70;;;11.60;99.90;;;;;;5096465;28;20020;-79
2022/11/04 08:53:37;;;;;;;;;;;11.60;99.90;;;;;;5114156;28;20024;-79
2022/11/04 08:56:19;;;;;;;2.92;0.80;;;11.70;99.90;;;;;;5097085;28;19903;-82
2022/11/04 08:58:45;;;;;;;2.22;0.60;;;11.70;99.90;;;;;;5100283;28;20059;-80
2022/11/04 09:01:11;;;;;;;2.90;0.75;;;11.80;99.90;;;;;;5089930;28;20055;-79
2022/11/04 09:03:39;;;;;;;2.85;0.75;;;11.90;99.90;;;;;;5095856;28;20114;-80
2022/11/04 09:06:10;;;;;;;2.05;0.50;;;12.00;99.90;;;;;;5094125;28;20031;-79
2022/11/04 09:08:38;;;;;;;1.98;1.17;;;12.00;99.90;;;;;;5111437;28;20044;-86
2022/11/04 09:11:07;;;;;;;2.63;0.90;;;12.00;99.90;;;;;;5110091;28;20028;-78
2022/11/04 09:13:33;;;;;;;3.10;1.10;;;12.00;99.90;;;;;;5092809;28;20027;-81
2022/11/04 09:15:58;;;;;;;1.30;0.70;;;12.00;99.90;;;;;;5101855;28;20028;-82
2022/11/04 09:18:24;;;;;;;2.85;0.75;;;12.10;99.90;;;;;;5096631;28;20574;-83
2022/11/04 09:20:49;;;;;;;3.50;0.60;;;12.10;99.90;;;;;;5082904;28;20108;-83
2022/11/04 09:23:15;;;;;;;3.88;0.50;;;12.10;99.90;;;;;;5093579;28;20031;-84
2022/11/04 09:25:41;;;;;;;4.25;0.80;;;12.20;99.90;;;;;;5081136;28;20016;-84
2022/11/04 09:28:06;;;;;;;1.60;0.60;;;12.10;99.90;;;;;;5097189;28;20445;-83
2022/11/04 09:30:32;;;;;;;3.42;0.52;;;12.10;99.90;;;;;;5084722;28;20579;-81
2022/11/04 09:32:58;;;;;;;3.15;0.70;;;12.20;99.90;;;;;;5091783;28;20028;-83
2022/11/04 09:35:24;;;;;;;7.75;0.77;;;12.20;99.90;;;;;;5097530;28;20050;-82
2022/11/04 09:37:49;;;;;;;2.70;0.50;;;12.30;99.90;;;;;;5091390;28;20077;-83
2022/11/04 09:40:18;;;;;;;2.33;0.45;;;12.30;99.90;;;;;;5085863;28;20028;-81
2022/11/04 09:42:47;;;;;;;2.30;0.82;;;12.40;99.90;;;;;;5082989;28;20043;-81
2022/11/04 09:45:17;;;;;;;4.53;0.68;;;12.40;99.90;;;;;;5093372;28;20464;-82
2022/11/04 09:47:46;;;;;;;2.00;0.52;;;12.40;99.90;;;;;;5081035;28;20443;-81
2022/11/04 09:50:23;;;;;;;2.78;0.70;;;12.50;99.90;;;;;;5087914;28;20102;-83
2022/11/04 09:53:07;;;;;;;2.38;0.60;;;12.60;99.90;;;;;;5090428;28;20110;-84
2022/11/04 09:56:00;;;;;;;2.08;0.60;;;12.70;99.90;;;;;;5096245;28;20380;-83
2022/11/04 09:58:28;;;;;;;4.65;0.75;;;12.70;99.90;;;;;;5104187;28;20066;-83
2022/11/04 10:01:17;;;;;;;4.30;0.65;;;12.70;99.90;;;;;;5096402;28;20032;-84
2022/11/04 10:04:04;;;;;;;2.35;0.65;;;12.60;99.90;;;;;;5080385;28;20312;-83
2022/11/04 10:06:41;;;;;;;2.35;0.55;;;12.60;99.90;;;;;;5095393;28;20503;-85
2022/11/04 10:09:38;;;;;;;5.95;0.55;;;12.60;99.90;;;;;;5096409;28;20042;-83
2022/11/04 10:12:21;;;;;;;6.55;0.88;;;12.60;99.90;;;;;;5083851;28;20068;-84
2022/11/04 10:15:22;;;;;;;3.33;0.65;;;12.70;99.90;;;;;;5096360;28;20023;-78
2022/11/04 10:18:04;;;;;;;4.60;0.55;;;12.70;99.90;;;;;;5080909;28;20027;-80
2022/11/04 10:20:41;;;;;;;3.25;0.52;;;12.60;99.90;;;;;;5083950;28;20032;-84
2022/11/04 10:23:33;;;;;;;3.13;0.45;;;12.60;99.90;;;;;;5092204;28;20456;-85
2022/11/04 10:26:18;;;;;;;5.05;0.70;;;12.60;99.90;;;;;;5082719;28;20031;-84
2022/11/04 10:29:03;;;;;;;4.78;0.50;;;12.60;99.90;;;;;;5113609;28;20476;-84
2022/11/04 10:31:29;;;;;;;3.13;0.60;;;12.60;99.90;;;;;;5092898;28;20740;-85
2022/11/04 10:34:11;;;;;;;4.55;0.68;;;12.70;99.90;;;;;;5082121;28;20020;-85
2022/11/04 10:36:37;;;;;;;4.53;0.60;;;12.70;99.90;;;;;;5094506;28;20110;-84
2022/11/04 10:39:13;;;;;;;3.53;0.55;;;12.80;99.90;;;;;;5095987;28;20036;-85
2022/11/04 10:41:39;;;;;;;0.88;0.47;;;12.90;99.90;;;;;;5075377;28;20087;-85
2022/11/04 10:44:15;;;;;;;3.47;0.70;;;13.00;99.90;;;;;;5101584;28;20020;-80
2022/11/04 10:47:00;;;;;;;2.90;0.50;;;13.00;99.90;;;;;;5082480;28;20028;-84
2022/11/04 10:49:38;;;;;;;4.97;0.60;;;13.20;99.90;;;;;;5077634;28;20433;-84
2022/11/04 10:52:05;;;;;;;2.13;0.40;;;13.20;99.90;;;;;;5095532;28;20103;-82
2022/11/04 10:54:40;;;;;;;2.05;0.52;;;13.30;99.90;;;;;;5091394;28;20028;-80
2022/11/04 10:57:06;;;;;;;5.13;0.98;;;13.40;99.90;;;;;;5095703;28;20027;-82
2022/11/04 10:59:52;;;;;;;4.97;1.40;;;13.40;99.90;;;;;;5091840;28;20039;-81
2022/11/04 11:02:18;;;;;;;6.47;0.80;;;13.40;99.90;;;;;;5102678;28;20030;-81
2022/11/04 11:04:46;;;;;;;1.73;0.40;;;13.50;99.90;;;;;;5095064;28;20118;-83
2022/11/04 11:07:21;;;;;;;6.00;0.60;;;13.50;99.90;;;;;;5094896;28;20034;-81
2022/11/04 11:09:47;;;;;;;4.40;0.73;;;13.40;99.90;;;;;;5089786;28;20135;-80
2022/11/04 11:12:13;;;;;;;4.30;0.63;;;13.40;99.90;;;;;;5101398;28;20532;-80
2022/11/04 11:14:40;;;;;;;150.25;75.63;;;13.40;99.90;;;;;;5097034;28;20118;-79
2022/11/04 11:17:19;;;;;;;12.45;6.53;;;13.40;99.90;;;;;;5099042;28;20023;-81
2022/11/04 11:19:49;;;;;;;7.38;2.92;;;13.40;99.90;;;;;;5083888;28;20306;-89
2022/11/04 11:22:34;;;;;;;4.15;2.15;;;13.30;99.90;;;;;;5090764;28;20465;-89
2022/11/04 11:25:23;;;;;;;3.17;1.10;;;13.30;99.90;;;;;;5094921;28;20019;-89
2022/11/04 11:28:06;;;;;;;1.50;0.80;;;13.40;99.90;;;;;;5112811;28;20023;-86
2022/11/04 11:30:54;;;;;;;3.65;0.75;;;13.40;99.90;;;;;;5087048;28;20079;-87
2022/11/04 11:33:23;;;;;;;3.88;0.73;;;13.40;99.90;;;;;;5096079;28;20097;-86
2022/11/04 11:36:13;;;;;;;4.10;0.73;;;13.30;99.90;;;;;;5084656;28;20024;-87
2022/11/04 11:38:56;;;;;;;4.07;0.60;;;13.30;99.90;;;;;;5086269;28;20473;-87
2022/11/04 11:41:27;;;;;;;5.07;0.70;;;13.30;99.90;;;;;;5096142;28;20035;-86
2022/11/04 11:43:56;;;;;;;3.25;0.57;;;13.40;99.90;;;;;;5085578;28;20374;-86
2022/11/04 11:46:25;;;;;;;3.15;0.50;;;13.50;99.90;;;;;;5099037;28;20043;-86
2022/11/04 11:48:53;;;;;;;2.15;0.47;;;13.70;99.90;;;;;;5102868;28;20028;-87
2022/11/04 11:51:28;;;;;;;1.48;0.40;;;13.90;99.90;;;;;;5114467;28;20051;-81
2022/11/04 11:54:13;;;;;;;4.88;0.63;;;14.00;99.90;;;;;;5107942;28;20026;-78
2022/11/04 11:56:44;;;;;;;4.15;0.40;;;14.10;99.90;;;;;;5092632;28;20078;-88
2022/11/04 11:59:21;;;;;;;3.65;0.60;;;14.30;99.90;;;;;;5111722;28;20023;-87
2022/11/04 12:02:10;;;;;;;3.10;0.40;;;14.50;99.90;;;;;;5082596;28;20027;-87
2022/11/04 12:04:36;;;;;;;4.43;0.43;;;14.60;99.90;;;;;;5084755;28;20036;-88
2022/11/04 12:07:26;;;;;;;5.53;0.35;;;14.60;99.90;;;;;;5112338;28;20027;-86
2022/11/04 12:10:21;;;;;;;1.67;0.40;;;14.60;99.90;;;;;;5110610;28;20020;-86
2022/11/04 12:13:04;;;;;;;4.55;0.60;;;14.80;99.90;;;;;;5108886;28;20019;-82
2022/11/04 12:15:33;;;;;;;4.65;0.57;;;14.90;99.90;;;;;;5099023;28;20035;-82
2022/11/04 12:18:14;;;;;;;4.60;0.57;;;15.20;99.90;;;;;;5097866;28;20426;-83
2022/11/04 12:21:02;;;;;;;5.28;1.60;;;15.40;99.90;;;;;;5097575;28;20115;-87
2022/11/04 12:23:43;;;;;;;4.72;1.25;;;15.60;99.90;;;;;;5097005;28;20023;-89
2022/11/04 12:26:23;;;;;;;3.25;0.80;;;15.90;99.90;;;;;;5116258;28;20449;-89
2022/11/04 12:29:00;;;;;;;3.10;0.85;;;16.20;99.90;;;;;;5097977;28;20035;-92
2022/11/04 12:31:38;;;;;;;4.32;0.73;;;16.50;99.90;;;;;;5097098;28;20146;-83
2022/11/04 12:34:44;;;;;;;5.88;0.60;;;16.30;99.90;;;;;;5090124;28;20039;-85
2022/11/04 12:37:52;;;;;;;3.10;0.90;;;16.30;99.90;;;;;;5094468;28;20111;-87
2022/11/04 12:40:48;;;;;;;1.67;0.55;;;17.00;99.90;;;;;;5061469;28;20519;-86
2022/11/04 12:43:35;;;;;;;4.07;0.40;;;17.50;99.90;;;;;;5059835;28;20122;-86
2022/11/04 12:46:36;;;;;;;1.73;0.30;;;17.40;99.90;;;;;;5116114;28;20023;-83
2022/11/04 12:49:26;;;;;;;1.70;0.45;;;17.80;99.90;;;;;;5097463;28;20027;-80
2022/11/04 12:52:13;;;;;;;3.47;0.50;;;18.20;99.90;;;;;;5083625;28;20015;-88
2022/11/04 12:54:39;;;;;;;2.83;0.30;;;18.30;99.90;;;;;;5107161;28;20500;-88
2022/11/04 12:57:30;;;;;;;2.90;0.50;;;18.50;99.40;;;;;;5106045;28;20023;-90
2022/11/04 13:00:12;;;;;;;3.25;0.57;;;19.30;97.30;;;;;;5101363;28;20480;-86
2022/11/04 13:02:50;;;;;;;2.88;0.60;;;19.60;95.10;;;;;;5092302;28;20059;-93
2022/11/04 13:05:41;;;;;;;4.47;0.60;;;19.10;95.50;;;;;;5115389;28;20112;-85
2022/11/04 13:08:15;;;;;;;3.25;0.50;;;18.40;97.20;;;;;;5089404;28;20031;-84
2022/11/04 13:11:21;;;;;;;1.58;0.40;;;18.10;96.90;;;;;;5107759;28;20400;-89
2022/11/04 13:14:03;;;;;;;2.65;0.40;;;17.50;97.60;;;;;;5097304;28;20022;-86
2022/11/04 13:16:34;;;;;;;4.50;0.70;;;17.10;98.50;;;;;;5085857;28;20032;-87
2022/11/04 13:19:01;;;;;;;2.92;0.52;;;16.90;98.90;;;;;;5092529;28;20472;-87
2022/11/04 13:21:34;;;;;;;4.40;0.50;;;16.60;99.10;;;;;;5097823;28;20028;-86
2022/11/04 13:24:30;;;;;;;5.05;0.70;;;16.30;99.80;;;;;;5081907;28;20024;-88
2022/11/04 13:27:03;;;;;;;3.08;0.50;;;16.20;99.90;;;;;;5105791;28;20040;-89
2022/11/04 13:29:33;;;;;;;4.15;0.63;;;15.90;99.90;;;;;;5100932;28;20056;-90
2022/11/04 13:32:24;;;;;;;3.13;0.50;;;15.80;99.90;;;;;;5096491;28;20085;-93
2022/11/04 13:35:10;;;;;;;3.33;0.73;;;15.60;99.90;;;;;;5104468;28;20103;-91
2022/11/04 13:38:11;;;;;;;3.90;0.80;;;15.40;99.90;;;;;;5075644;28;20089;-90
2022/11/04 13:41:07;;;;;;;5.13;0.63;;;15.30;99.90;;;;;;5104888;28;20027;-90
2022/11/04 13:43:37;;;;;;;3.53;0.40;;;15.30;99.90;;;;;;5095101;28;20104;-72